< < Back
Terminal Aerodrome Forecast


Current Version              Previous Versions:   1  2  3  4  5  6  7  8  9  

Terminal Aerodrome Forecast

792
FTUS42 KTAE 310959 AAB
TAFABY
TAF AMD
KABY 310959Z 3110/0106 00000KT 1/2SM FG OVC002
     FM311500 25009KT P6SM BKN040
     FM010000 24007KT P6SM BKN100=



Latest METAR

770
SAUS70 KWBC 311500 RRI
MTRABY
METAR KABY 311453Z 25003KT 5SM BR OVC003 17/17 A3014 RMK AO2 SLP206
T01720167 51008


USA.gov is the U.S. government's official web portal to all federal, state and local government web resources and services.